Main page
METAR-TAF:

METAR-TAF

Airports :

Nakashibetsu Airport

Nakashibetsu, Japan

latitude: 43-34N, longitude: 144-58E, elevation: 66 m

Current weather observation

The report was made 1 hour and 19 minutes ago, at 03:00 UTC
Wind 8 kt from the East/Northeast
Temperature 10°C
Humidity 71%
Pressure 1012 hPa
Visibility 10 km or more
Few clouds at a height of 1500 ft
Scattered clouds at a height of 2500 ft
Broken clouds at a height of 5000 ft

METAR: RJCN 230300Z 07008KT 9999 FEW015 SCT025 BKN050 10/05 Q1012

Time: 13:19 (04:19 UTC)


TAF: missing

Weather observations and forecasts of more than 4000 airports (METAR and TAF reports).

The available stations are represented by yellow and red dots on the map.

Hover mouse over dot to see the name of the station.

Then click to see weather observations and forecasts.

To change the map : click on the green buttons with a black cross to zoom in, on the green button with a dash to zoom out, or on the green arrows for adjacent maps.


METAR-TAF: